createdAt,value
2022-11-16T00:01:36.218Z,13.87
2022-11-16T00:04:04.452Z,16.67
2022-11-16T00:06:32.003Z,16.70
2022-11-16T00:09:19.306Z,13.67
2022-11-16T00:11:51.130Z,13.83
2022-11-16T00:14:18.818Z,14.00
2022-11-16T00:16:46.387Z,14.20
2022-11-16T00:19:13.958Z,16.73
2022-11-16T00:21:41.733Z,11.20
2022-11-16T00:24:12.911Z,13.53
2022-11-16T00:26:40.409Z,14.60
2022-11-16T00:29:14.378Z,12.40
2022-11-16T00:31:42.198Z,15.50
2022-11-16T00:34:09.767Z,15.77
2022-11-16T00:36:37.371Z,15.27
2022-11-16T00:39:05.398Z,16.07
2022-11-16T00:41:32.926Z,12.67
2022-11-16T00:44:00.498Z,11.03
2022-11-16T00:46:29.647Z,13.47
2022-11-16T00:48:57.149Z,12.13
2022-11-16T00:51:24.732Z,13.00
2022-11-16T00:53:52.428Z,13.67
2022-11-16T00:56:20.576Z,13.90
2022-11-16T00:58:48.127Z,14.83
2022-11-16T01:01:15.897Z,15.50
2022-11-16T01:03:45.985Z,12.27
2022-11-16T01:06:15.944Z,14.77
2022-11-16T01:08:44.553Z,14.50
2022-11-16T01:11:32.257Z,15.47
2022-11-16T01:13:59.743Z,14.53
2022-11-16T01:16:27.241Z,12.63
2022-11-16T01:18:56.197Z,13.97
2022-11-16T01:21:24.702Z,14.90
2022-11-16T01:23:53.067Z,14.43
2022-11-16T01:26:20.838Z,12.47
2022-11-16T01:28:48.525Z,13.70
2022-11-16T01:31:16.075Z,12.97
2022-11-16T01:33:43.632Z,14.00
2022-11-16T01:36:28.424Z,11.67
2022-11-16T01:38:58.154Z,12.47
2022-11-16T01:41:29.917Z,11.03
2022-11-16T01:44:02.395Z,13.10
2022-11-16T01:46:35.743Z,15.80
2022-11-16T01:49:07.942Z,13.03
2022-11-16T01:51:38.397Z,12.90
2022-11-16T01:54:09.626Z,15.03
2022-11-16T01:56:40.413Z,14.00
2022-11-16T01:59:12.610Z,13.40
2022-11-16T02:01:40.615Z,13.50
2022-11-16T02:04:11.057Z,13.40
2022-11-16T02:07:00.154Z,15.27
2022-11-16T02:09:55.874Z,12.83
2022-11-16T02:13:01.643Z,13.13
2022-11-16T02:15:42.201Z,14.00
2022-11-16T02:18:25.674Z,13.23
2022-11-16T02:21:24.697Z,14.07
2022-11-16T02:24:12.730Z,12.57
2022-11-16T02:27:08.724Z,11.00
2022-11-16T02:29:40.726Z,13.67
2022-11-16T02:32:13.174Z,13.73
2022-11-16T02:34:46.155Z,12.60
2022-11-16T02:37:19.129Z,12.03
2022-11-16T02:39:48.997Z,14.30
2022-11-16T02:42:22.700Z,12.83
2022-11-16T02:44:53.640Z,13.70
2022-11-16T02:47:28.704Z,12.20
2022-11-16T02:50:01.387Z,11.83
2022-11-16T02:52:30.151Z,13.37
2022-11-16T02:54:57.923Z,14.10
2022-11-16T02:57:39.224Z,12.80
2022-11-16T03:00:16.739Z,14.17
2022-11-16T03:02:52.119Z,12.43
2022-11-16T03:05:31.914Z,12.13
2022-11-16T03:08:09.361Z,14.13
2022-11-16T03:11:00.085Z,12.80
2022-11-16T03:13:31.957Z,14.73
2022-11-16T03:16:02.801Z,12.50
2022-11-16T03:18:32.544Z,12.23
2022-11-16T03:21:07.920Z,15.33
2022-11-16T03:23:35.610Z,17.07
2022-11-16T03:26:08.054Z,14.03
2022-11-16T03:28:48.232Z,15.47
2022-11-16T03:31:22.476Z,12.03
2022-11-16T03:33:56.063Z,15.07
2022-11-16T03:36:30.148Z,16.93
2022-11-16T03:39:02.340Z,19.80
2022-11-16T03:41:32.677Z,19.63
2022-11-16T03:44:01.575Z,19.73
2022-11-16T03:46:30.466Z,20.00
2022-11-16T03:48:59.672Z,17.30
2022-11-16T03:51:31.165Z,16.63
2022-11-16T03:53:59.055Z,17.07
2022-11-16T03:56:26.797Z,16.20
2022-11-16T03:58:54.335Z,18.60
2022-11-16T04:01:22.012Z,17.87
2022-11-16T04:03:51.601Z,17.80
2022-11-16T04:06:37.999Z,20.40
2022-11-16T04:09:23.793Z,19.13
2022-11-16T04:12:10.083Z,20.67
2022-11-16T04:14:56.516Z,17.73
2022-11-16T04:17:44.474Z,15.27
2022-11-16T04:20:34.486Z,19.73
2022-11-16T04:23:27.812Z,20.40
2022-11-16T04:25:56.132Z,19.27
2022-11-16T04:28:29.572Z,19.07
2022-11-16T04:31:20.152Z,18.50
2022-11-16T04:34:16.280Z,20.07
2022-11-16T04:37:08.197Z,18.40
2022-11-16T04:39:36.368Z,17.90
2022-11-16T04:42:15.127Z,20.67
2022-11-16T04:45:01.839Z,17.33
2022-11-16T04:47:35.687Z,18.90
2022-11-16T04:50:03.516Z,19.47
2022-11-16T04:52:32.533Z,20.13
2022-11-16T04:55:00.244Z,18.63
2022-11-16T04:57:29.246Z,20.57
2022-11-16T04:59:57.232Z,22.70
2022-11-16T05:02:25.182Z,19.07
2022-11-16T05:04:56.851Z,18.20
2022-11-16T05:07:25.701Z,18.60
2022-11-16T05:10:01.622Z,18.37
2022-11-16T05:12:29.524Z,18.40
2022-11-16T05:15:00.333Z,19.53
2022-11-16T05:17:31.106Z,20.73
2022-11-16T05:20:18.290Z,21.13
2022-11-16T05:22:54.528Z,19.73
2022-11-16T05:25:24.589Z,19.30
2022-11-16T05:27:52.749Z,19.53
2022-11-16T05:30:20.512Z,21.53
2022-11-16T05:32:48.146Z,16.70
2022-11-16T05:35:17.424Z,19.67
2022-11-16T05:37:45.487Z,20.30
2022-11-16T05:40:13.753Z,18.70
2022-11-16T05:42:48.994Z,18.33
2022-11-16T05:45:20.970Z,21.23
2022-11-16T05:47:49.383Z,17.53
2022-11-16T05:50:17.529Z,18.97
2022-11-16T05:52:52.580Z,20.40
2022-11-16T05:55:20.149Z,20.57
2022-11-16T05:57:49.068Z,18.47
2022-11-16T06:00:17.563Z,21.23
2022-11-16T06:02:49.416Z,20.23
2022-11-16T06:05:24.380Z,18.63
2022-11-16T06:07:52.450Z,19.10
2022-11-16T06:10:20.135Z,18.93
2022-11-16T06:12:51.748Z,20.97
2022-11-16T06:15:19.815Z,20.97
2022-11-16T06:17:48.379Z,19.20
2022-11-16T06:20:17.395Z,18.40
2022-11-16T06:22:46.425Z,20.20
2022-11-16T06:25:14.434Z,22.77
2022-11-16T06:27:44.471Z,20.23
2022-11-16T06:30:17.411Z,20.83
2022-11-16T06:32:45.605Z,20.97
2022-11-16T06:35:13.176Z,21.00
2022-11-16T06:37:40.947Z,19.07
2022-11-16T06:40:10.446Z,19.67
2022-11-16T06:42:42.715Z,21.00
2022-11-16T06:45:12.182Z,18.40
2022-11-16T06:47:45.320Z,19.80
2022-11-16T06:50:13.016Z,20.87
2022-11-16T06:52:40.628Z,20.93
2022-11-16T06:55:09.694Z,18.93
2022-11-16T06:57:38.583Z,21.13
2022-11-16T07:00:09.076Z,20.17
2022-11-16T07:02:38.420Z,19.23
2022-11-16T07:05:09.820Z,18.50
2022-11-16T07:07:37.707Z,20.77
2022-11-16T07:10:06.353Z,20.57
2022-11-16T07:12:34.125Z,20.97
2022-11-16T07:15:02.742Z,20.37
2022-11-16T07:17:33.546Z,18.60
2022-11-16T07:20:01.163Z,21.83
2022-11-16T07:22:31.251Z,18.90
2022-11-16T07:25:00.008Z,17.93
2022-11-16T07:27:28.856Z,17.60
2022-11-16T07:29:56.384Z,19.50
2022-11-16T07:32:43.069Z,19.27
2022-11-16T07:35:20.075Z,20.27
2022-11-16T07:37:49.188Z,18.17
2022-11-16T07:40:17.328Z,19.17
2022-11-16T07:42:46.420Z,17.80
2022-11-16T07:45:24.947Z,20.30
2022-11-16T07:47:58.162Z,19.97
2022-11-16T07:50:45.694Z,18.43
2022-11-16T07:53:15.054Z,21.40
2022-11-16T07:55:42.631Z,19.67
2022-11-16T07:58:10.589Z,21.87
2022-11-16T08:00:38.798Z,21.47
2022-11-16T08:03:16.479Z,20.67
2022-11-16T08:05:47.246Z,21.20
2022-11-16T08:08:16.193Z,19.07
2022-11-16T08:10:43.817Z,20.70
2022-11-16T08:13:12.254Z,18.93
2022-11-16T08:15:40.540Z,19.97
2022-11-16T08:18:10.207Z,23.20
2022-11-16T08:20:38.444Z,20.07
2022-11-16T08:23:06.654Z,21.30
2022-11-16T08:25:38.142Z,18.80
2022-11-16T08:28:06.513Z,19.23
2022-11-16T08:30:35.440Z,21.60
2022-11-16T08:33:02.961Z,17.87
2022-11-16T08:35:30.583Z,15.00
2022-11-16T08:37:58.635Z,17.57
2022-11-16T08:40:30.668Z,18.40
2022-11-16T08:43:48.357Z,16.67
2022-11-16T08:46:30.531Z,15.60
2022-11-16T08:49:08.832Z,18.17
2022-11-16T08:51:42.516Z,17.83
2022-11-16T08:54:10.515Z,16.93
2022-11-16T08:56:42.443Z,16.83
2022-11-16T08:59:12.492Z,16.17
2022-11-16T09:01:46.530Z,18.50
2022-11-16T09:04:17.395Z,17.37
2022-11-16T09:06:45.642Z,15.00
2022-11-16T09:12:18.120Z,17.07
2022-11-16T09:14:47.636Z,14.80
2022-11-16T09:17:21.754Z,11.87
2022-11-16T09:19:51.503Z,14.23
2022-11-16T09:22:21.612Z,15.23
2022-11-16T09:24:53.220Z,15.20
2022-11-16T09:27:23.657Z,14.17
2022-11-16T09:29:52.955Z,13.37
2022-11-16T09:32:23.682Z,10.97
2022-11-16T09:34:51.464Z,9.47
2022-11-16T09:37:19.566Z,9.57
2022-11-16T09:39:47.564Z,9.20
2022-11-16T09:42:34.376Z,9.77
2022-11-16T09:45:08.399Z,8.70
2022-11-16T09:47:49.364Z,8.97
2022-11-16T09:50:28.096Z,9.50
2022-11-16T09:53:01.571Z,9.53
2022-11-16T09:55:34.901Z,7.03
2022-11-16T09:58:16.267Z,8.90
2022-11-16T10:00:51.548Z,10.47
2022-11-16T10:03:19.676Z,8.43
2022-11-16T10:05:54.567Z,10.13
2022-11-16T10:08:30.220Z,9.47
2022-11-16T10:11:06.598Z,10.93
2022-11-16T10:13:47.809Z,12.80
2022-11-16T10:16:31.270Z,9.60
2022-11-16T10:19:11.960Z,10.93
2022-11-16T10:21:52.996Z,12.07
2022-11-16T10:24:34.497Z,12.63
2022-11-16T10:27:22.135Z,10.83
2022-11-16T10:30:03.144Z,12.87
2022-11-16T10:32:38.082Z,12.03
2022-11-16T10:35:16.882Z,10.83
2022-11-16T10:37:49.946Z,12.30
2022-11-16T10:40:21.578Z,12.33
2022-11-16T10:43:00.144Z,11.93
2022-11-16T10:45:34.162Z,11.40
2022-11-16T10:48:10.150Z,11.13
2022-11-16T10:50:40.402Z,11.83
2022-11-16T10:53:08.092Z,12.03
2022-11-16T10:55:36.249Z,11.90
2022-11-16T10:58:06.192Z,11.87
2022-11-16T11:00:41.453Z,11.73
2022-11-16T11:03:12.257Z,12.50
2022-11-16T11:05:49.968Z,10.43
2022-11-16T11:08:26.950Z,10.97
2022-11-16T11:11:22.591Z,11.40
2022-11-16T11:14:04.849Z,12.87
2022-11-16T11:16:32.641Z,10.47
2022-11-16T11:19:18.413Z,12.23
2022-11-16T11:21:46.270Z,12.03
2022-11-16T11:24:43.462Z,13.77
2022-11-16T11:27:05.375Z,12.80
2022-11-16T11:29:37.562Z,11.77
2022-11-16T11:32:07.864Z,11.90
2022-11-16T11:34:42.887Z,10.20
2022-11-16T11:37:16.204Z,12.87
2022-11-16T11:40:20.520Z,11.37
2022-11-16T11:43:00.447Z,11.90
2022-11-16T11:45:41.653Z,12.67
2022-11-16T11:48:25.275Z,11.60
2022-11-16T11:50:56.140Z,11.20
2022-11-16T11:53:40.233Z,13.50
2022-11-16T11:56:11.333Z,13.07
2022-11-16T11:58:41.052Z,10.53
2022-11-16T12:01:46.847Z,13.93
2022-11-16T12:04:47.659Z,12.83
2022-11-16T12:07:26.344Z,11.63
2022-11-16T12:10:02.214Z,15.40
2022-11-16T12:12:48.369Z,10.80
2022-11-16T12:15:45.575Z,13.30
2022-11-16T12:18:30.758Z,13.47
2022-11-16T12:21:06.792Z,13.53
2022-11-16T12:23:59.877Z,10.60
2022-11-16T12:26:39.264Z,10.23
2022-11-16T12:29:24.981Z,13.73
2022-11-16T12:32:23.362Z,11.70
2022-11-16T12:35:04.714Z,12.80
2022-11-16T12:37:40.084Z,12.77
2022-11-16T12:40:27.017Z,12.97
2022-11-16T12:43:03.161Z,12.90
2022-11-16T12:45:49.849Z,13.27
2022-11-16T12:48:45.511Z,11.67
2022-11-16T12:51:31.630Z,13.67
2022-11-16T12:54:15.078Z,12.07
2022-11-16T12:56:51.697Z,13.07
2022-11-16T12:59:31.971Z,13.27
2022-11-16T13:02:10.845Z,12.93
2022-11-16T13:04:43.304Z,12.97
2022-11-16T13:07:15.259Z,13.77
2022-11-16T13:09:47.608Z,11.97
2022-11-16T13:12:19.729Z,11.80
2022-11-16T13:14:50.585Z,11.30
2022-11-16T13:17:23.055Z,12.03
2022-11-16T13:20:16.605Z,10.30
2022-11-16T13:22:51.985Z,11.17
2022-11-16T13:25:28.356Z,9.70
2022-11-16T13:28:04.772Z,10.60
2022-11-16T13:30:41.933Z,10.37
2022-11-16T13:33:28.977Z,10.73
2022-11-16T13:35:56.953Z,11.47
2022-11-16T13:38:50.641Z,10.73
2022-11-16T13:41:29.221Z,9.67
2022-11-16T13:43:57.148Z,10.77
2022-11-16T13:46:54.043Z,9.40
2022-11-16T13:49:31.014Z,9.30
2022-11-16T13:52:17.286Z,9.43
2022-11-16T13:54:52.308Z,9.57
2022-11-16T13:57:24.160Z,7.90
2022-11-16T14:00:08.959Z,9.40
2022-11-16T14:02:37.716Z,9.87
2022-11-16T14:05:15.812Z,8.97
2022-11-16T14:07:46.438Z,9.63
2022-11-16T14:10:55.923Z,8.40
2022-11-16T14:13:49.239Z,7.90
2022-11-16T14:16:48.953Z,8.90
2022-11-16T14:19:58.596Z,10.47
2022-11-16T14:22:51.156Z,10.03
2022-11-16T14:25:30.677Z,9.30
2022-11-16T14:28:16.909Z,7.93
2022-11-16T14:30:56.789Z,8.03
2022-11-16T14:33:32.681Z,10.00
2022-11-16T14:36:03.696Z,8.20
2022-11-16T14:38:47.535Z,9.23
2022-11-16T14:41:22.746Z,8.10
2022-11-16T14:43:58.554Z,9.23
2022-11-16T14:46:34.149Z,9.40
2022-11-16T14:49:03.771Z,9.77
2022-11-16T14:51:35.216Z,8.53
2022-11-16T14:54:16.625Z,9.30
2022-11-16T14:57:04.811Z,8.23
2022-11-16T14:59:38.965Z,7.60
2022-11-16T15:02:21.835Z,7.93
2022-11-16T15:04:53.463Z,8.20
2022-11-16T15:07:24.423Z,7.73
2022-11-16T15:09:56.430Z,8.70
2022-11-16T15:12:46.341Z,8.33
2022-11-16T15:15:19.086Z,7.53
2022-11-16T15:17:53.322Z,7.97
2022-11-16T15:20:24.597Z,7.43
2022-11-16T15:22:54.189Z,7.70
2022-11-16T15:29:48.371Z,7.83
2022-11-16T15:32:17.899Z,6.63
2022-11-16T15:34:48.759Z,8.00
2022-11-16T15:37:28.044Z,7.50
2022-11-16T15:39:56.847Z,7.70
2022-11-16T15:42:26.652Z,6.97
2022-11-16T15:44:56.345Z,7.33
2022-11-16T15:47:24.687Z,8.67
2022-11-16T15:49:53.084Z,7.97
2022-11-16T15:52:43.287Z,6.50
2022-11-16T15:55:34.040Z,7.87
2022-11-16T15:58:08.031Z,6.97
2022-11-16T16:00:38.354Z,7.07
2022-11-16T16:03:15.736Z,6.80
2022-11-16T16:06:05.919Z,7.47
2022-11-16T16:08:35.252Z,7.07
2022-11-16T16:11:06.507Z,6.60
2022-11-16T16:13:37.147Z,6.43
2022-11-16T16:16:24.762Z,6.50
2022-11-16T16:18:53.400Z,6.87
2022-11-16T16:21:21.194Z,7.90
2022-11-16T16:23:50.413Z,6.50
2022-11-16T16:26:18.667Z,7.20
2022-11-16T16:28:46.870Z,7.23
2022-11-16T16:31:18.537Z,7.53
2022-11-16T16:33:45.987Z,6.50
2022-11-16T16:36:13.639Z,8.27
2022-11-16T16:38:41.109Z,6.20
2022-11-16T16:41:08.873Z,7.00
2022-11-16T16:43:36.768Z,7.23
2022-11-16T16:46:05.211Z,7.07
2022-11-16T16:48:34.024Z,7.30
2022-11-16T16:51:01.501Z,6.67
2022-11-16T16:53:29.299Z,6.17
2022-11-16T16:55:56.773Z,5.07
2022-11-16T16:58:24.209Z,6.20
2022-11-16T17:00:53.727Z,7.20
2022-11-16T17:03:24.400Z,6.20
2022-11-16T17:05:53.745Z,5.77
2022-11-16T17:08:21.180Z,6.67
2022-11-16T17:10:50.742Z,5.67
2022-11-16T17:13:18.209Z,5.50
2022-11-16T17:15:45.901Z,6.77
2022-11-16T17:18:13.376Z,6.80
2022-11-16T17:20:45.204Z,6.47
2022-11-16T17:23:15.202Z,4.90
2022-11-16T17:25:45.246Z,6.57
2022-11-16T17:28:12.717Z,7.00
2022-11-16T17:30:40.662Z,7.20
2022-11-16T17:33:08.283Z,6.97
2022-11-16T17:35:36.111Z,6.23
2022-11-16T17:38:03.945Z,6.80
2022-11-16T17:40:34.464Z,6.13
2022-11-16T17:43:01.983Z,6.30
2022-11-16T17:45:29.583Z,6.60
2022-11-16T17:47:57.065Z,6.70
2022-11-16T17:50:24.556Z,6.43
2022-11-16T17:52:58.245Z,6.00
2022-11-16T17:55:25.809Z,6.33
2022-11-16T17:57:58.415Z,5.83
2022-11-16T18:00:26.078Z,5.37
2022-11-16T18:02:53.556Z,6.40
2022-11-16T18:05:21.201Z,5.40
2022-11-16T18:07:49.796Z,5.50
2022-11-16T18:10:19.352Z,5.93
2022-11-16T18:12:47.041Z,5.73
2022-11-16T18:15:27.902Z,6.50
2022-11-16T18:17:57.123Z,5.70
2022-11-16T18:20:24.852Z,5.40
2022-11-16T18:22:52.885Z,5.97
2022-11-16T18:25:20.388Z,5.77
2022-11-16T18:27:51.588Z,4.30
2022-11-16T18:30:21.301Z,5.60
2022-11-16T18:32:48.884Z,6.40
2022-11-16T18:35:17.036Z,6.23
2022-11-16T18:37:44.513Z,6.20
2022-11-16T18:40:12.354Z,4.83
2022-11-16T18:42:41.598Z,4.20
2022-11-16T18:45:09.965Z,5.07
2022-11-16T18:47:38.929Z,5.23
2022-11-16T18:50:18.049Z,5.70
2022-11-16T18:52:46.625Z,5.53
2022-11-16T18:55:14.158Z,5.50
2022-11-16T18:57:41.703Z,4.93
2022-11-16T19:00:11.834Z,5.50
2022-11-16T19:02:40.720Z,3.63
2022-11-16T19:05:08.590Z,6.10
2022-11-16T19:07:36.198Z,4.93
2022-11-16T19:10:03.787Z,4.93
2022-11-16T19:12:31.241Z,4.53
2022-11-16T19:14:58.893Z,4.50
2022-11-16T19:17:26.996Z,4.70
2022-11-16T19:19:55.776Z,4.87
2022-11-16T19:22:23.350Z,4.63
2022-11-16T19:24:50.825Z,5.07
2022-11-16T19:27:18.364Z,4.90
2022-11-16T19:29:45.936Z,5.13
2022-11-16T19:32:13.371Z,4.50
2022-11-16T19:34:40.781Z,4.27
2022-11-16T19:37:09.622Z,4.73
2022-11-16T19:39:37.182Z,4.80
2022-11-16T19:42:05.449Z,4.47
2022-11-16T19:44:33.153Z,4.73
2022-11-16T19:47:00.584Z,4.87
2022-11-16T19:49:28.078Z,5.00
2022-11-16T19:51:55.620Z,4.83
2022-11-16T19:54:24.442Z,5.17
2022-11-16T19:56:55.210Z,5.20
2022-11-16T19:59:23.102Z,4.97
2022-11-16T20:01:50.559Z,5.27
2022-11-16T20:04:18.202Z,5.03
2022-11-16T20:06:45.756Z,4.43
2022-11-16T20:09:13.289Z,5.10
2022-11-16T20:11:44.885Z,3.43
2022-11-16T20:14:13.801Z,4.17
2022-11-16T20:16:43.228Z,5.50
2022-11-16T20:19:11.484Z,4.63
2022-11-16T20:21:40.701Z,4.97
2022-11-16T20:24:10.745Z,4.17
2022-11-16T20:26:43.918Z,5.10
2022-11-16T20:29:12.491Z,4.40
2022-11-16T20:31:42.533Z,4.30
2022-11-16T20:34:13.962Z,4.80
2022-11-16T20:36:43.245Z,3.63
2022-11-16T20:39:13.882Z,4.37
2022-11-16T20:41:43.937Z,4.10
2022-11-16T20:44:16.741Z,5.00
2022-11-16T20:46:45.232Z,4.70
2022-11-16T20:49:13.299Z,4.63
2022-11-16T20:51:40.946Z,4.63
2022-11-16T20:54:08.498Z,4.53
2022-11-16T20:56:35.967Z,4.60
2022-11-16T20:59:05.295Z,4.50
2022-11-16T21:01:32.828Z,5.13
2022-11-16T21:04:05.800Z,3.97
2022-11-16T21:06:34.321Z,4.17
2022-11-16T21:09:02.245Z,4.60
2022-11-16T21:11:51.182Z,5.40
2022-11-16T21:14:19.360Z,4.63
2022-11-16T21:16:46.966Z,4.30
2022-11-16T21:19:14.791Z,5.40
2022-11-16T21:21:42.325Z,4.60
2022-11-16T21:24:10.406Z,5.87
2022-11-16T21:26:39.706Z,5.07
2022-11-16T21:29:07.236Z,4.60
2022-11-16T21:31:37.698Z,4.27
2022-11-16T21:34:07.672Z,4.67
2022-11-16T21:36:36.082Z,4.87
2022-11-16T21:39:03.640Z,4.87
2022-11-16T21:41:34.119Z,4.83
2022-11-16T21:44:01.613Z,4.00
2022-11-16T21:46:29.155Z,4.00
2022-11-16T21:48:58.946Z,3.87
2022-11-16T21:51:28.006Z,4.03
2022-11-16T21:53:57.110Z,4.60
2022-11-16T21:56:26.892Z,3.90
2022-11-16T21:58:55.663Z,4.77
2022-11-16T22:01:25.403Z,5.40
2022-11-16T22:04:06.966Z,4.43
2022-11-16T22:06:54.145Z,4.40
2022-11-16T22:09:26.433Z,4.80
2022-11-16T22:11:54.621Z,5.10
2022-11-16T22:14:22.168Z,4.90
2022-11-16T22:16:49.620Z,4.20
2022-11-16T22:19:17.178Z,4.37
2022-11-16T22:21:45.947Z,4.10
2022-11-16T22:24:13.442Z,4.20
2022-11-16T22:26:44.683Z,3.87
2022-11-16T22:29:13.496Z,3.77
2022-11-16T22:31:40.944Z,4.03
2022-11-16T22:34:08.522Z,4.23
2022-11-16T22:36:36.085Z,4.20
2022-11-16T22:39:05.092Z,4.20
2022-11-16T22:41:32.691Z,3.40
2022-11-16T22:44:00.627Z,3.77
2022-11-16T22:46:28.179Z,5.03
2022-11-16T22:48:56.029Z,4.37
2022-11-16T22:51:25.839Z,5.17
2022-11-16T22:53:55.020Z,5.33
2022-11-16T22:56:24.936Z,5.80
2022-11-16T22:58:52.758Z,5.47
2022-11-16T23:01:21.186Z,5.23
2022-11-16T23:03:49.096Z,4.23
2022-11-16T23:06:18.430Z,5.60
2022-11-16T23:08:47.505Z,5.10
2022-11-16T23:11:34.286Z,5.10
2022-11-16T23:14:22.079Z,4.63
2022-11-16T23:16:51.028Z,5.80
2022-11-16T23:19:37.859Z,5.73
2022-11-16T23:22:24.475Z,4.63
2022-11-16T23:25:10.569Z,5.20
2022-11-16T23:27:44.174Z,5.40
2022-11-16T23:30:16.098Z,4.00
2022-11-16T23:32:43.952Z,4.73
2022-11-16T23:35:12.159Z,4.83
2022-11-16T23:37:53.962Z,5.47
2022-11-16T23:40:23.405Z,4.90
2022-11-16T23:43:12.133Z,5.33
2022-11-16T23:45:42.149Z,5.03
2022-11-16T23:48:11.146Z,7.13
2022-11-16T23:50:38.879Z,6.97
2022-11-16T23:53:07.620Z,6.13
2022-11-16T23:55:36.262Z,6.50
2022-11-16T23:58:03.693Z,5.80
